Time;durP1;ratioP1;P1;durP2;ratioP2;P2;SDS_P1;SDS_P2;PMS_P1;PMS_P2;Temp;Humidity;BMP_temperature;BMP_pressure;BME280_temperature;BME280_humidity;BME280_pressure;Samples;Min_cycle;Max_cycle;Signal;HPM_P1;HPM_P2
2021/05/31 00:02:03;;;;;;;;;8.00;6.00;;;;;24.62;37.59;101716.72;5056452;28;45323;-45
2021/05/31 00:04:30;;;;;;;;;3.50;3.50;;;;;24.60;37.74;101710.53;5056216;28;46120;-43
2021/05/31 00:07:02;;;;;;;;;4.50;4.50;;;;;24.60;37.58;101712.44;5056069;28;45398;-43
2021/05/31 00:09:29;;;;;;;;;5.50;5.50;;;;;24.58;37.57;101709.84;5055899;28;45443;-43
2021/05/31 00:11:54;;;;;;;;;6.50;5.75;;;;;24.56;37.65;101700.91;5056158;28;45473;-44
2021/05/31 00:14:20;;;;;;;;;7.00;6.00;;;;;24.55;37.64;101702.81;5056028;28;45432;-44
2021/05/31 00:16:45;;;;;;;;;5.25;4.00;;;;;24.54;37.70;101697.47;5056202;28;45321;-44
2021/05/31 00:19:13;;;;;;;;;6.00;5.00;;;;;24.52;37.83;101700.41;5056211;28;45313;-44
2021/05/31 00:21:39;;;;;;;;;6.25;6.25;;;;;24.52;37.99;101705.06;5056065;28;45381;-44
2021/05/31 00:24:05;;;;;;;;;7.75;5.25;;;;;24.49;37.74;101705.38;5055756;28;46124;-43
2021/05/31 00:26:31;;;;;;;;;7.00;7.00;;;;;24.47;37.85;101697.31;5055423;28;45641;-44
2021/05/31 00:28:56;;;;;;;;;6.00;4.00;;;;;24.47;37.72;101701.94;5056027;28;45240;-43
2021/05/31 00:31:22;;;;;;;;;4.00;4.00;;;;;24.46;37.91;101700.22;5038025;28;45171;-45
2021/05/31 00:33:47;;;;;;;;;6.00;4.25;;;;;24.44;37.96;101697.66;5055519;28;45271;-44
2021/05/31 00:36:13;;;;;;;;;6.00;5.25;;;;;24.43;37.91;101689.56;5055478;28;45384;-46
2021/05/31 00:38:42;;;;;;;;;4.00;4.00;;;;;24.41;37.86;101687.00;5054704;28;45331;-46
2021/05/31 00:41:08;;;;;;;;;5.25;5.25;;;;;24.40;37.83;101691.63;5037607;28;45427;-48
2021/05/31 00:43:34;;;;;;;;;5.00;4.25;;;;;24.39;38.07;101691.81;5055838;28;46032;-46
2021/05/31 00:46:04;;;;;;;;;5.50;5.50;;;;;24.38;38.03;101687.34;5055816;28;45542;-45
2021/05/31 00:48:30;;;;;;;;;6.25;5.50;;;;;24.36;38.03;101693.00;5055674;28;45433;-45
2021/05/31 00:50:57;;;;;;;;;4.75;4.50;;;;;24.34;37.98;101684.09;5055830;28;45392;-46
2021/05/31 00:53:23;;;;;;;;;6.25;5.25;;;;;24.32;37.96;101683.38;5055714;28;45313;-48
2021/05/31 00:55:49;;;;;;;;;7.00;5.75;;;;;24.31;38.13;101686.31;5057115;28;45377;-45
2021/05/31 00:58:15;;;;;;;;;5.00;5.00;;;;;24.29;38.22;101678.22;5059033;28;45979;-46
2021/05/31 01:00:42;;;;;;;;;4.50;4.00;;;;;24.29;38.19;101682.88;5059064;28;45320;-47
2021/05/31 01:03:08;;;;;;;;;8.50;6.25;;;;;24.28;38.14;101686.63;5059025;28;45901;-47
2021/05/31 01:05:33;;;;;;;;;4.50;4.50;;;;;24.27;38.30;101682.19;5040879;28;45372;-46
2021/05/31 01:08:07;;;;;;;;;6.00;6.00;;;;;24.24;38.26;101684.22;5040807;28;45427;-47
2021/05/31 01:10:40;;;;;;;;;6.25;6.00;;;;;24.21;38.30;101676.31;5038677;28;45393;-49
2021/05/31 01:13:16;;;;;;;;;6.50;5.50;;;;;24.22;38.23;101674.44;5040633;28;45295;-45
2021/05/31 01:15:48;;;;;;;;;5.75;5.25;;;;;24.21;38.31;101675.47;5058895;28;45188;-45
2021/05/31 01:18:26;;;;;;;;;4.00;4.00;;;;;24.20;38.51;101679.25;5059083;28;45449;-44
2021/05/31 01:21:26;;;;;;;;;6.00;5.00;;;;;24.17;38.23;101664.00;5058998;28;45198;-44
2021/05/31 01:24:02;;;;;;;;;5.25;5.25;;;;;24.16;38.35;101675.09;5058104;28;46031;-43
2021/05/31 01:26:41;;;;;;;;;5.00;5.00;;;;;24.13;38.48;101667.22;5040233;28;45743;-43
2021/05/31 01:29:08;;;;;;;;;4.00;4.00;;;;;24.12;38.59;101665.50;5058799;28;45325;-46
2021/05/31 01:31:43;;;;;;;;;4.75;4.00;;;;;24.11;38.64;101664.63;5058770;28;45262;-46
2021/05/31 01:34:11;;;;;;;;;5.00;4.00;;;;;24.08;38.41;101664.97;5040586;28;46212;-45
2021/05/31 01:36:50;;;;;;;;;5.00;5.00;;;;;24.09;38.47;101663.94;5058507;28;45387;-46
2021/05/31 01:39:21;;;;;;;;;6.00;6.00;;;;;24.07;38.50;101661.38;5058443;28;45381;-44
2021/05/31 01:41:48;;;;;;;;;5.00;3.25;;;;;24.06;38.50;101659.66;5058459;28;45301;-46
2021/05/31 01:44:18;;;;;;;;;5.75;5.75;;;;;24.05;38.55;101663.44;5058403;28;46175;-43
2021/05/31 01:46:45;;;;;;;;;4.50;3.00;;;;;24.04;38.76;101656.22;5058358;28;45279;-43
2021/05/31 01:49:12;;;;;;;;;5.00;5.00;;;;;24.02;38.50;101650.03;5040362;28;45313;-47
2021/05/31 01:51:39;;;;;;;;;4.25;3.75;;;;;24.02;38.52;101660.16;5058465;28;45460;-44
2021/05/31 01:54:10;;;;;;;;;5.00;5.00;;;;;24.01;38.55;101650.22;5057891;28;46215;-44
2021/05/31 01:56:36;;;;;;;;;5.50;5.50;;;;;23.98;38.53;101648.66;5058205;28;45574;-45
2021/05/31 01:59:04;;;;;;;;;4.00;4.00;;;;;23.99;38.61;101644.03;5058108;28;45499;-43
2021/05/31 02:01:31;;;;;;;;;7.25;5.50;;;;;23.97;38.53;101640.59;5058299;28;45365;-45
2021/05/31 02:03:57;;;;;;;;;4.25;4.25;;;;;23.96;38.70;101645.25;5039887;28;45546;-49
2021/05/31 02:06:22;;;;;;;;;4.25;4.00;;;;;23.95;38.73;101640.75;5057435;28;45508;-44
2021/05/31 02:08:47;;;;;;;;;4.00;4.00;;;;;23.95;38.70;101648.97;5057649;28;45604;-45
2021/05/31 02:11:25;;;;;;;;;4.00;4.00;;;;;23.93;38.90;101638.16;5058005;28;45330;-47
2021/05/31 02:13:55;;;;;;;;;3.50;3.50;;;;;23.91;38.82;101645.69;5057351;28;46068;-44
2021/05/31 02:16:44;;;;;;;;;5.25;4.75;;;;;23.91;38.74;101644.84;5023560;28;45475;-45
2021/05/31 02:19:13;;;;;;;;;4.75;4.75;;;;;23.89;38.76;101647.72;5057430;28;45266;-44
2021/05/31 02:21:41;;;;;;;;;6.00;4.00;;;;;23.88;38.71;101639.69;5057847;28;45437;-45
2021/05/31 02:24:07;;;;;;;;;5.00;5.00;;;;;23.85;38.96;101632.66;5057791;28;45528;-44
2021/05/31 02:26:36;;;;;;;;;6.00;6.00;;;;;23.86;38.84;101644.47;5057808;28;45669;-44
2021/05/31 02:29:01;;;;;;;;;5.50;4.25;;;;;23.86;38.88;101638.97;5039734;28;45500;-44
2021/05/31 02:31:27;;;;;;;;;4.00;3.75;;;;;23.83;38.86;101637.44;5057841;28;45368;-43
2021/05/31 02:33:52;;;;;;;;;6.50;6.00;;;;;23.82;38.72;101643.94;5057589;28;45478;-44
2021/05/31 02:36:18;;;;;;;;;5.50;5.50;;;;;23.79;39.06;101642.41;5039297;28;45408;-45
2021/05/31 02:38:44;;;;;;;;;4.75;4.75;;;;;23.78;38.90;101637.94;5057702;28;45259;-43
2021/05/31 02:41:10;;;;;;;;;3.25;3.25;;;;;23.77;39.21;101641.69;5057661;28;45389;-44
2021/05/31 02:43:35;;;;;;;;;4.00;4.00;;;;;23.76;38.89;101647.34;5039221;28;47497;-43
2021/05/31 02:46:01;;;;;;;;;4.25;4.00;;;;;23.75;39.00;101640.16;5057472;28;45297;-44
2021/05/31 02:48:27;;;;;;;;;5.00;5.00;;;;;23.73;39.01;101640.31;5057445;28;45302;-44
2021/05/31 02:50:56;;;;;;;;;4.50;3.50;;;;;23.72;39.00;101637.75;5057381;28;45437;-43
2021/05/31 02:53:23;;;;;;;;;4.00;4.00;;;;;23.70;39.22;101637.88;5039691;28;46062;-43
2021/05/31 02:55:48;;;;;;;;;3.75;3.75;;;;;23.71;39.15;101647.00;5056721;28;45211;-43
2021/05/31 02:58:14;;;;;;;;;6.25;4.75;;;;;23.70;39.22;101637.88;5057320;28;45235;-44
2021/05/31 03:00:39;;;;;;;;;5.00;5.00;;;;;23.68;39.23;101648.16;5057136;28;45226;-43
2021/05/31 03:03:05;;;;;;;;;4.50;4.50;;;;;23.68;39.27;101648.16;5056869;28;45266;-46
2021/05/31 03:05:32;;;;;;;;;3.00;3.00;;;;;23.66;39.33;101644.75;5056984;28;45277;-43
2021/05/31 03:07:58;;;;;;;;;7.00;4.50;;;;;23.65;39.35;101649.34;5022414;28;45563;-43
2021/05/31 03:10:25;;;;;;;;;5.25;5.25;;;;;23.64;39.21;101647.63;5056961;28;45418;-43
2021/05/31 03:12:51;;;;;;;;;3.00;3.00;;;;;23.63;39.25;101653.28;5056956;28;46142;-43
2021/05/31 03:15:17;;;;;;;;;5.00;5.00;;;;;23.62;39.24;101649.69;5057084;28;46124;-44
2021/05/31 03:17:47;;;;;;;;;5.00;5.00;;;;;23.61;39.41;101650.69;5056505;28;45360;-44
2021/05/31 03:20:13;;;;;;;;;5.00;3.00;;;;;23.60;39.40;101643.53;5056926;28;45481;-43
2021/05/31 03:22:39;;;;;;;;;4.50;4.00;;;;;23.60;39.48;101648.13;5056828;28;45467;-43
2021/05/31 03:25:07;;;;;;;;;3.00;3.00;;;;;23.59;39.36;101649.16;5056899;28;45506;-43
2021/05/31 03:27:32;;;;;;;;;4.75;4.00;;;;;23.58;39.47;101650.16;5057146;28;45314;-43
2021/05/31 03:29:58;;;;;;;;;6.75;5.50;;;;;23.57;39.43;101651.19;5056789;28;45275;-47
2021/05/31 03:32:23;;;;;;;;;4.00;4.00;;;;;23.54;39.56;101657.88;5056739;28;46174;-47
2021/05/31 03:34:49;;;;;;;;;4.00;4.00;;;;;23.56;39.71;101658.56;5038406;28;45258;-47
2021/05/31 03:37:14;;;;;;;;;5.00;5.00;;;;;23.54;39.73;101654.25;5056750;28;45241;-46
2021/05/31 03:39:40;;;;;;;;;4.00;4.00;;;;;23.54;39.74;101662.47;5056800;28;45233;-44
2021/05/31 03:42:07;;;;;;;;;2.00;2.00;;;;;23.52;39.75;101659.06;5056498;28;45215;-44
2021/05/31 03:44:33;;;;;;;;;4.50;4.00;;;;;23.51;39.53;101666.41;5056614;28;45184;-47
2021/05/31 03:46:58;;;;;;;;;3.50;3.50;;;;;23.48;39.75;101662.13;5056742;28;45348;-48
2021/05/31 03:49:24;;;;;;;;;3.25;3.00;;;;;23.49;39.58;101672.06;5038300;28;45472;-45
2021/05/31 03:51:49;;;;;;;;;3.25;3.25;;;;;23.48;39.58;101667.59;5055976;28;45439;-46
2021/05/31 03:54:15;;;;;;;;;5.75;4.25;;;;;23.47;39.55;101674.09;5056434;28;45416;-49
2021/05/31 03:56:40;;;;;;;;;3.75;3.75;;;;;23.46;40.03;101672.38;5056567;28;45382;-44
2021/05/31 03:59:06;;;;;;;;;3.75;3.75;;;;;23.46;39.86;101666.06;5038150;28;45317;-46
2021/05/31 04:01:32;;;;;;;;;3.00;3.00;;;;;23.45;39.86;101665.19;5056370;28;46143;-45
2021/05/31 04:03:58;;;;;;;;;7.00;3.00;;;;;23.43;40.10;101667.22;5055994;28;45758;-47
2021/05/31 04:11:57;;;;;;;;;4.50;3.50;;;;;23.41;40.08;101666.53;4994074;28;45908;-46
2021/05/31 04:14:22;;;;;;;;;3.00;3.00;;;;;23.41;40.16;101673.91;4994305;28;45283;-44
2021/05/31 04:16:51;;;;;;;;;3.00;3.00;;;;;23.41;40.27;101668.41;4994374;28;45387;-44
2021/05/31 04:19:18;;;;;;;;;3.25;3.25;;;;;23.39;39.94;101662.25;4993938;28;45363;-46
2021/05/31 04:21:46;;;;;;;;;5.75;3.25;;;;;23.38;40.24;101669.63;4994114;28;46138;-47
2021/05/31 04:24:12;;;;;;;;;3.50;3.50;;;;;23.38;39.91;101669.63;4993901;28;45398;-47
2021/05/31 04:26:38;;;;;;;;;3.00;3.00;;;;;23.37;40.33;101664.28;4994208;28;45368;-44
2021/05/31 04:29:05;;;;;;;;;3.00;3.00;;;;;23.36;40.44;101651.59;4994021;28;45367;-47
2021/05/31 04:31:32;;;;;;;;;3.00;3.00;;;;;23.34;40.23;101660.84;4996659;28;45469;-48
2021/05/31 04:33:58;;;;;;;;;3.00;3.00;;;;;23.34;40.24;101660.00;4997282;28;45781;-47
2021/05/31 04:36:23;;;;;;;;;3.00;3.00;;;;;23.33;40.25;101664.59;4997620;28;45436;-45
2021/05/31 04:38:49;;;;;;;;;4.00;4.00;;;;;23.33;40.16;101672.81;4997351;28;45336;-47
2021/05/31 04:41:14;;;;;;;;;3.00;3.00;;;;;23.31;40.29;101661.19;5008679;28;45421;-45
2021/05/31 04:43:40;;;;;;;;;4.00;4.00;;;;;23.31;40.36;101672.16;5017286;28;45382;-45
2021/05/31 04:46:06;;;;;;;;;2.50;2.50;;;;;23.31;40.36;101665.78;5036617;28;45446;-50
2021/05/31 04:48:31;;;;;;;;;3.75;3.75;;;;;23.30;40.38;101664.94;5058503;28;45340;-46
2021/05/31 04:50:58;;;;;;;;;3.50;3.50;;;;;23.30;40.25;101666.81;5041074;28;46172;-46
2021/05/31 04:53:25;;;;;;;;;3.50;3.00;;;;;23.30;40.38;101661.31;5059247;28;45401;-46
2021/05/31 04:55:52;;;;;;;;;2.00;2.00;;;;;23.28;40.19;101661.50;5041174;28;45416;-46
2021/05/31 04:58:18;;;;;;;;;5.00;4.50;;;;;23.27;40.71;101672.59;5059235;28;45397;-45
2021/05/31 05:00:44;;;;;;;;;3.75;3.75;;;;;23.28;40.43;101672.47;5058803;28;45410;-44
2021/05/31 05:03:09;;;;;;;;;4.00;4.00;;;;;23.26;40.49;101669.00;5058913;28;45219;-45
2021/05/31 05:05:35;;;;;;;;;4.25;4.25;;;;;23.24;40.59;101662.00;5059168;28;45227;-47
2021/05/31 05:08:00;;;;;;;;;4.00;3.00;;;;;23.26;40.59;101671.75;5058695;28;45234;-45
2021/05/31 05:10:26;;;;;;;;;3.25;3.25;;;;;23.23;40.50;101663.00;5038782;28;45989;-47
2021/05/31 05:12:52;;;;;;;;;2.75;2.00;;;;;23.24;40.51;101670.22;5020842;28;45369;-47
2021/05/31 05:15:20;;;;;;;;;4.50;3.25;;;;;23.25;40.65;101674.66;5038935;28;45270;-45
2021/05/31 05:17:47;;;;;;;;;3.50;3.00;;;;;23.24;40.62;101662.84;5038946;28;45352;-46
2021/05/31 05:20:14;;;;;;;;;5.50;4.00;;;;;23.24;40.73;101667.47;5020882;28;45577;-46
2021/05/31 05:22:40;;;;;;;;;4.00;4.00;;;;;23.21;40.61;101667.78;5038649;28;45468;-46
2021/05/31 05:25:06;;;;;;;;;3.75;3.00;;;;;23.23;40.82;101666.59;5038858;28;45250;-45
2021/05/31 05:27:32;;;;;;;;;2.00;2.00;;;;;23.23;40.71;101660.25;5038907;28;45377;-42
2021/05/31 05:29:58;;;;;;;;;3.25;3.25;;;;;23.22;40.52;101661.28;5038086;28;45949;-46
2021/05/31 05:32:24;;;;;;;;;3.00;3.00;;;;;23.23;40.61;101661.13;5038523;28;45357;-47
2021/05/31 05:34:51;;;;;;;;;3.50;3.50;;;;;23.22;40.82;101658.53;5020685;28;45397;-47
2021/05/31 05:37:26;;;;;;;;;4.50;3.25;;;;;23.22;40.78;101662.13;5038459;28;45353;-46
2021/05/31 05:40:20;;;;;;;;;3.00;3.00;;;;;23.22;40.87;101661.28;5075241;27;45748;-45
2021/05/31 05:48:15;;;;;;;;;4.75;4.00;;;;;23.21;40.91;101667.78;5016118;28;45551;-45
2021/05/31 05:50:41;;;;;;;;;2.00;2.00;;;;;23.21;40.91;101667.78;5016008;28;45456;-44
2021/05/31 05:53:07;;;;;;;;;4.00;3.25;;;;;23.21;40.75;101667.78;5016006;28;45409;-47
2021/05/31 05:55:33;;;;;;;;;4.00;4.00;;;;;23.20;40.99;101664.16;5016138;28;45571;-43
2021/05/31 05:57:59;;;;;;;;;4.00;2.75;;;;;23.19;40.99;101668.78;5007033;28;45497;-44
2021/05/31 06:00:28;;;;;;;;;3.00;3.00;;;;;23.20;40.66;101666.91;4994358;28;46352;-47
2021/05/31 06:02:54;;;;;;;;;6.00;4.50;;;;;23.21;41.17;101670.53;4992727;28;45539;-44
2021/05/31 06:05:21;;;;;;;;;3.00;3.00;;;;;23.20;40.79;101666.91;4996105;28;45529;-45
2021/05/31 06:07:47;;;;;;;;;3.25;3.25;;;;;23.21;40.96;101665.03;4995988;28;45239;-46
2021/05/31 06:10:14;;;;;;;;;6.75;5.75;;;;;23.21;41.17;101651.34;4994859;28;46045;-45
2021/05/31 06:12:39;;;;;;;;;6.75;6.00;;;;;23.18;41.02;101653.34;4995597;28;45518;-46
2021/05/31 06:15:07;;;;;;;;;7.50;6.75;;;;;23.21;41.16;101663.16;4995411;28;45216;-45
2021/05/31 06:17:32;;;;;;;;;8.75;7.75;;;;;23.22;40.83;101664.03;4995819;28;45330;-43
2021/05/31 06:20:00;;;;;;;;;9.00;8.00;;;;;23.21;40.84;101654.09;4995814;28;45310;-46
2021/05/31 06:22:35;;;;;;;;;9.75;8.25;;;;;23.21;40.91;101663.16;4995766;28;45526;-42
2021/05/31 06:25:00;;;;;;;;;12.00;10.50;;;;;23.22;40.62;101659.38;5025683;28;45490;-43
2021/05/31 06:27:26;;;;;;;;;12.50;9.75;;;;;23.23;40.85;101663.00;5057700;28;45302;-42
2021/05/31 06:29:52;;;;;;;;;12.50;11.50;;;;;23.18;40.69;101658.81;5056728;28;45967;-44
2021/05/31 06:32:17;;;;;;;;;17.00;13.50;;;;;23.24;40.81;101664.72;5057559;28;45410;-45
2021/05/31 06:34:43;;;;;;;;;13.50;13.00;;;;;23.21;40.49;101665.88;5057594;28;45391;-43
2021/05/31 06:37:09;;;;;;;;;13.00;12.25;;;;;23.22;40.54;101664.03;5057553;28;45227;-43
2021/05/31 06:39:34;;;;;;;;;12.25;12.00;;;;;23.19;40.36;101660.56;5057421;28;46048;-45
2021/05/31 06:42:00;;;;;;;;;11.50;11.50;;;;;23.22;40.27;101664.88;5057408;28;45362;-44
2021/05/31 06:44:25;;;;;;;;;12.00;11.25;;;;;23.21;40.35;101659.56;5038694;28;45513;-45
2021/05/31 06:46:51;;;;;;;;;13.25;11.75;;;;;23.21;40.23;101654.94;5051290;28;45559;-46
2021/05/31 06:49:16;;;;;;;;;10.25;10.25;;;;;23.19;39.80;101657.81;5056481;28;45472;-43
2021/05/31 06:51:42;;;;;;;;;13.00;11.00;;;;;23.22;39.70;101661.28;5057129;28;45579;-44
2021/05/31 06:54:08;;;;;;;;;11.50;10.00;;;;;23.22;39.99;101664.03;5056179;28;45189;-41
2021/05/31 06:56:33;;;;;;;;;11.75;9.00;;;;;23.21;39.90;101651.34;5057086;28;45480;-43
2021/05/31 06:58:59;;;;;;;;;12.00;11.00;;;;;23.17;39.90;101651.63;5056636;28;45862;-44
2021/05/31 07:01:24;;;;;;;;;7.25;7.25;;;;;23.21;39.86;101652.19;5057192;28;45416;-44
2021/05/31 07:03:50;;;;;;;;;9.00;9.00;;;;;23.20;39.92;101647.72;5056996;28;45395;-42
2021/05/31 07:06:16;;;;;;;;;10.50;8.50;;;;;23.21;39.56;101646.72;5038993;28;45459;-45
2021/05/31 07:08:41;;;;;;;;;8.75;7.50;;;;;23.23;39.56;101646.56;5056537;28;45608;-47
2021/05/31 07:11:16;;;;;;;;;8.50;8.50;;;;;23.23;39.70;101643.84;5057050;28;45295;-43
2021/05/31 07:13:43;;;;;;;;;10.00;9.25;;;;;23.23;39.64;101641.94;5038886;28;45345;-43
2021/05/31 07:16:14;;;;;;;;;7.75;7.00;;;;;23.23;39.36;101644.66;5057080;28;45270;-45
2021/05/31 07:18:40;;;;;;;;;6.25;6.25;;;;;23.24;39.69;101637.34;5056303;28;47101;-45
2021/05/31 07:21:06;;;;;;;;;6.75;6.75;;;;;23.25;39.16;101636.31;5056489;28;45376;-43
2021/05/31 07:23:31;;;;;;;;;9.50;7.00;;;;;23.24;39.51;101637.34;5038876;28;45349;-44
2021/05/31 07:25:57;;;;;;;;;7.25;6.50;;;;;23.26;39.19;101633.41;5038502;28;45655;-44
2021/05/31 07:28:23;;;;;;;;;7.25;6.00;;;;;23.25;39.44;101623.47;5038515;28;45379;-43
2021/05/31 07:30:48;;;;;;;;;6.00;6.00;;;;;23.28;39.45;101639.59;5056751;28;45354;-42
2021/05/31 07:33:14;;;;;;;;;9.50;6.25;;;;;23.29;39.25;101634.94;5056877;28;45267;-42
2021/05/31 07:35:41;;;;;;;;;5.75;5.75;;;;;23.30;39.05;101633.94;5056816;28;45400;-43
2021/05/31 07:38:07;;;;;;;;;5.75;5.25;;;;;23.31;39.10;101638.38;5038345;28;45325;-47
2021/05/31 07:40:33;;;;;;;;;5.50;5.50;;;;;23.31;39.17;101635.66;5055832;28;45463;-44
2021/05/31 07:42:59;;;;;;;;;5.25;5.25;;;;;23.33;39.19;101636.34;5062447;28;45548;-46
2021/05/31 07:45:25;;;;;;;;;6.75;5.25;;;;;23.33;39.02;101636.34;5038215;28;45540;-47
2021/05/31 07:47:51;;;;;;;;;5.00;5.00;;;;;23.34;38.91;101638.06;5056346;28;45392;-48
2021/05/31 07:50:18;;;;;;;;;5.25;5.25;;;;;23.34;38.77;101636.19;5056222;28;45469;-42
2021/05/31 07:52:44;;;;;;;;;9.00;6.00;;;;;23.33;38.94;101623.50;5056515;28;45379;-43
2021/05/31 07:55:13;;;;;;;;;5.75;5.00;;;;;23.35;38.82;101623.34;5056273;28;45239;-43
2021/05/31 07:57:40;;;;;;;;;3.00;3.00;;;;;23.36;38.65;101624.19;5056147;28;46057;-45
2021/05/31 08:00:08;;;;;;;;;4.00;4.00;;;;;23.37;38.46;101621.31;5037671;28;45616;-43
2021/05/31 08:02:35;;;;;;;;;5.00;4.00;;;;;23.37;38.35;101615.81;5056400;28;45254;-42
2021/05/31 08:05:00;;;;;;;;;6.50;4.00;;;;;23.39;38.52;101621.97;5056196;28;45254;-44
2021/05/31 08:07:26;;;;;;;;;6.00;5.75;;;;;23.40;38.23;101618.22;5055955;28;45274;-45
2021/05/31 08:09:51;;;;;;;;;5.75;5.25;;;;;23.42;38.33;101618.06;5037522;28;45439;-44
2021/05/31 08:12:17;;;;;;;;;3.00;3.00;;;;;23.44;38.33;101621.50;5038076;28;45514;-43
2021/05/31 08:14:42;;;;;;;;;4.50;4.50;;;;;23.43;38.46;101620.63;5056407;28;45175;-44
2021/05/31 08:17:08;;;;;;;;;6.50;5.00;;;;;23.46;38.23;101619.47;5037899;28;46722;-46
2021/05/31 08:19:34;;;;;;;;;7.00;4.00;;;;;23.48;37.96;101620.13;5056128;28;45515;-48
2021/05/31 08:22:01;;;;;;;;;4.00;4.00;;;;;23.49;38.09;101617.25;5056217;28;45401;-45
2021/05/31 08:24:27;;;;;;;;;4.00;4.00;;;;;23.51;38.08;101608.84;5055698;28;45646;-45
2021/05/31 08:26:53;;;;;;;;;5.00;5.00;;;;;23.53;37.88;101609.56;5056008;28;45998;-45
2021/05/31 08:29:20;;;;;;;;;4.50;4.50;;;;;23.55;37.98;101603.91;5055935;28;45382;-43
2021/05/31 08:31:46;;;;;;;;;6.25;4.75;;;;;23.56;38.50;101597.41;5056138;28;45285;-44
2021/05/31 08:34:12;;;;;;;;;7.00;6.00;;;;;23.57;38.06;101593.63;5055995;28;45414;-46
2021/05/31 08:36:37;;;;;;;;;3.75;3.75;;;;;23.60;37.62;101593.31;5055897;28;46070;-46
2021/05/31 08:39:04;;;;;;;;;5.00;5.00;;;;;23.60;37.86;101593.31;5055654;28;45335;-44
2021/05/31 08:41:30;;;;;;;;;5.00;4.50;;;;;23.62;38.05;101604.97;5037327;28;45501;-43
2021/05/31 08:43:56;;;;;;;;;5.00;3.75;;;;;23.64;37.79;101589.22;5055647;28;45457;-44
2021/05/31 08:46:22;;;;;;;;;4.00;4.00;;;;;23.65;37.57;101589.03;5055336;28;45405;-43
2021/05/31 08:48:47;;;;;;;;;4.25;4.25;;;;;23.68;37.49;101585.09;5036991;28;45435;-44
2021/05/31 08:51:13;;;;;;;;;3.50;3.50;;;;;23.70;37.66;101579.47;5055785;28;45344;-47
2021/05/31 08:53:45;;;;;;;;;5.25;3.25;;;;;23.71;37.38;101583.94;5054831;28;45319;-44
2021/05/31 08:56:11;;;;;;;;;4.00;4.00;;;;;23.73;37.47;101576.41;5054931;28;45507;-46
2021/05/31 08:58:37;;;;;;;;;4.50;4.50;;;;;23.74;37.46;101578.97;5055472;28;45724;-42
2021/05/31 09:01:03;;;;;;;;;3.25;2.75;;;;;23.77;37.35;101586.88;5037569;28;45313;-44
2021/05/31 09:03:29;;;;;;;;;3.75;3.00;;;;;23.79;37.03;101589.44;5055671;28;45405;-42
2021/05/31 09:05:59;;;;;;;;;4.75;4.00;;;;;23.80;37.02;101581.06;5055407;28;45463;-44
2021/05/31 09:08:25;;;;;;;;;5.00;4.00;;;;;23.81;37.22;101576.41;5054895;28;45665;-42
2021/05/31 09:10:58;;;;;;;;;8.00;5.00;;;;;23.84;37.42;101575.22;5055300;28;45400;-44
2021/05/31 09:13:38;;;;;;;;;5.00;4.00;;;;;23.87;37.14;101577.63;5055642;28;45274;-45
2021/05/31 09:16:05;;;;;;;;;3.50;3.50;;;;;23.87;37.18;101575.75;5056238;28;45417;-44
2021/05/31 09:18:30;;;;;;;;;4.75;4.75;;;;;23.89;36.54;101581.06;5058877;28;45234;-47
2021/05/31 09:20:57;;;;;;;;;4.75;4.00;;;;;23.91;36.84;101573.53;5058965;28;45206;-48
2021/05/31 09:23:22;;;;;;;;;3.00;3.00;;;;;23.93;36.81;101575.06;5058637;28;45235;-48
2021/05/31 09:25:48;;;;;;;;;6.25;4.00;;;;;23.92;36.15;101553.31;5040581;28;46214;-47
2021/05/31 09:28:14;;;;;;;;;5.50;4.00;;;;;23.94;36.36;101563.06;5058739;28;45398;-46
2021/05/31 09:30:42;;;;;;;;;3.50;3.50;;;;;23.97;36.40;101561.06;5058722;28;45382;-45
2021/05/31 09:33:11;;;;;;;;;6.00;4.25;;;;;23.97;36.28;101559.16;5058810;28;45317;-43
2021/05/31 09:35:41;;;;;;;;;5.50;3.75;;;;;24.00;36.21;101557.97;5058497;28;45469;-43
2021/05/31 09:38:07;;;;;;;;;5.00;2.25;;;;;24.00;36.01;101558.84;5040228;28;45332;-42
2021/05/31 09:40:33;;;;;;;;;3.50;3.50;;;;;24.03;36.36;101558.50;5058607;28;45255;-45
2021/05/31 09:43:01;;;;;;;;;4.50;3.50;;;;;24.03;36.29;101557.66;5058592;28;45520;-46
2021/05/31 09:45:29;;;;;;;;;3.00;3.00;;;;;24.06;36.34;101560.91;5058282;28;45322;-48
2021/05/31 09:47:59;;;;;;;;;4.00;4.00;;;;;24.05;35.89;101548.22;5058542;28;45348;-44
2021/05/31 09:50:31;;;;;;;;;4.75;3.25;;;;;24.10;36.18;101553.19;5039742;28;45385;-47
2021/05/31 09:53:06;;;;;;;;;4.00;4.00;;;;;24.13;36.14;101546.50;5058194;28;45317;-43
2021/05/31 09:55:37;;;;;;;;;3.00;3.00;;;;;24.14;35.67;101549.09;5057781;28;46085;-42
2021/05/31 09:58:07;;;;;;;;;2.50;2.50;;;;;24.16;35.48;101549.78;5023419;28;45369;-42
2021/05/31 10:00:33;;;;;;;;;4.25;4.25;;;;;24.18;35.48;101539.47;5050358;28;45461;-43
2021/05/31 10:03:25;;;;;;;;;5.00;3.75;;;;;24.21;35.33;101557.50;5044281;28;45509;-47
2021/05/31 10:06:10;;;;;;;;;4.00;3.50;;;;;24.22;35.65;101556.47;5036624;28;45337;-43
2021/05/31 10:11:03;;;;;;;;;4.50;4.00;;;;;24.27;35.35;101564.19;5056987;28;45350;-41
2021/05/31 10:13:29;;;;;;;;;3.50;3.50;;;;;24.28;35.64;101555.78;5039472;28;45526;-42
2021/05/31 10:15:56;;;;;;;;;5.50;5.00;;;;;24.30;35.05;101555.63;5057082;28;45339;-41
2021/05/31 10:18:25;;;;;;;;;3.25;3.25;;;;;24.31;34.90;101560.91;5057335;28;45388;-42
2021/05/31 10:20:51;;;;;;;;;4.00;3.00;;;;;24.33;34.72;101549.75;5056861;28;45550;-41
2021/05/31 10:23:17;;;;;;;;;7.00;5.00;;;;;24.36;34.85;101546.69;5057498;28;45493;-41
2021/05/31 10:25:51;;;;;;;;;3.50;3.00;;;;;24.38;34.96;101537.28;5038717;28;46998;-44
2021/05/31 10:28:21;;;;;;;;;4.25;3.00;;;;;24.41;35.01;101544.28;5057128;28;45353;-42
2021/05/31 10:30:52;;;;;;;;;4.00;4.00;;;;;24.43;35.10;101544.97;5056613;28;45338;-44
2021/05/31 10:33:21;;;;;;;;;5.00;5.00;;;;;24.44;34.44;101538.47;5057168;28;45497;-42
2021/05/31 10:35:47;;;;;;;;;6.25;5.25;;;;;24.44;34.59;101532.09;5043305;28;46362;-41
2021/05/31 10:38:19;;;;;;;;;3.50;3.00;;;;;24.46;34.44;101539.16;5056957;28;45566;-41
2021/05/31 10:40:54;;;;;;;;;5.00;4.25;;;;;24.49;34.50;101537.94;5055421;28;45277;-43
2021/05/31 10:43:23;;;;;;;;;4.00;4.00;;;;;24.49;34.44;101537.94;5057318;28;45630;-41
2021/05/31 10:46:00;;;;;;;;;4.00;4.00;;;;;24.53;34.28;101542.91;5055058;28;45519;-41
2021/05/31 10:48:25;;;;;;;;;4.00;4.00;;;;;24.55;34.10;101546.34;5056761;28;45769;-43
2021/05/31 10:51:00;;;;;;;;;3.75;3.75;;;;;24.58;33.70;101533.31;5054961;28;46150;-43
2021/05/31 10:53:31;;;;;;;;;5.00;5.00;;;;;24.59;33.57;101535.88;5057050;28;45333;-42
2021/05/31 10:56:06;;;;;;;;;4.00;4.00;;;;;24.62;33.91;101534.66;5056559;28;45234;-42
2021/05/31 10:58:37;;;;;;;;;5.00;5.00;;;;;24.65;33.95;101517.84;5056335;28;45445;-43
2021/05/31 11:01:12;;;;;;;;;5.00;5.00;;;;;24.67;33.94;101516.66;5056237;28;45505;-43
2021/05/31 11:03:50;;;;;;;;;4.00;4.00;;;;;24.70;33.96;101523.69;5056493;28;45492;-41
2021/05/31 11:06:19;;;;;;;;;6.25;6.00;;;;;24.73;33.90;101517.00;5056612;28;46164;-42
2021/05/31 11:08:55;;;;;;;;;4.00;3.00;;;;;24.75;33.91;101520.44;5056213;28;45714;-44
2021/05/31 11:11:29;;;;;;;;;3.00;3.00;;;;;24.78;34.30;101517.34;5056268;28;45497;-42
2021/05/31 11:13:56;;;;;;;;;5.75;4.00;;;;;24.80;33.65;101520.78;5056440;28;45376;-42
2021/05/31 11:16:22;;;;;;;;;5.00;4.00;;;;;24.82;33.64;101513.22;5056422;28;45516;-44
2021/05/31 11:18:54;;;;;;;;;4.75;4.75;;;;;24.85;33.51;101512.84;5056133;28;45474;-43
2021/05/31 11:21:29;;;;;;;;;3.50;3.50;;;;;24.87;33.48;101521.78;5056036;28;45475;-42
2021/05/31 11:24:01;;;;;;;;;4.25;4.25;;;;;24.90;33.55;101526.03;5056384;28;45325;-43
2021/05/31 11:26:28;;;;;;;;;4.50;4.50;;;;;24.90;33.28;101507.69;5056193;28;45487;-44
2021/05/31 11:28:55;;;;;;;;;4.25;4.25;;;;;24.93;33.45;101510.09;5056080;28;45473;-42
2021/05/31 11:31:24;;;;;;;;;3.00;3.00;;;;;24.96;33.17;101503.38;5055994;28;45279;-44
2021/05/31 11:33:53;;;;;;;;;3.75;3.75;;;;;24.95;32.74;101490.66;5055600;28;45351;-42
2021/05/31 11:36:34;;;;;;;;;5.25;3.75;;;;;24.99;32.69;101490.13;5055077;28;45487;-47
2021/05/31 11:39:07;;;;;;;;;4.25;4.25;;;;;25.02;32.83;101494.44;5055424;28;45329;-44
2021/05/31 11:41:38;;;;;;;;;6.50;5.25;;;;;25.06;32.77;101489.44;5038528;28;45447;-42